Time;durP1;ratioP1;P1;durP2;ratioP2;P2;SDS_P1;SDS_P2;PMS_P1;PMS_P2;Temp;Humidity;BMP_temperature;BMP_pressure;BME280_temperature;BME280_humidity;BME280_pressure;Samples;Min_cycle;Max_cycle;Signal;HPM_P1;HPM_P2
2022/10/28 00:00:04;;;;;;;;;;;;;;;;;;349913;28;929;-65
2022/10/28 00:00:14;;;;;;;;;;;;;;;;;;349953;28;965;-65
2022/10/28 00:00:24;;;;;;;;;;;;;;;;;;348466;28;932;-65
2022/10/28 00:00:34;;;;;;;;;;;;;;;;;;348500;28;972;-65
2022/10/28 00:00:45;;;;;;;;;;;;;;;;;;348491;28;825;-65
2022/10/28 00:01:00;;;;;;;;;;;;;;;;;;348173;28;2323;-65
2022/10/28 00:01:17;;;;;;;;;;;;;;;;;;348557;28;979;-65
2022/10/28 00:01:28;;;;;;;;;;;;;;;;;;348483;28;980;-65
2022/10/28 00:01:38;;;;;;;;;;;;;;;;;;348420;28;1048;-65
2022/10/28 00:01:48;;;;;;;;;;;;;;;;;;348527;28;957;-65
2022/10/28 00:01:58;;;;;;;;;;;;;;;;;;348437;28;845;-65
2022/10/28 00:02:08;;;;;;;;;;;;;;;;;;348630;28;1425;-65
2022/10/28 00:02:19;;;;;;;;;;;;;;;;;;349472;28;1817;-64
2022/10/28 00:02:29;;;;;;;;;;;;;;;;;;349931;28;1078;-65
2022/10/28 00:02:39;;;;;;;;;;;;;;;;;;349919;28;825;-64
2022/10/28 00:02:49;;;;;;;;;;;;;;;;;;349938;28;1060;-65
2022/10/28 00:03:00;;;;;;;;;;;;;;;;;;349539;28;2239;-65
2022/10/28 00:03:10;;;;;;;;;;;;;;;;;;350003;28;890;-65
2022/10/28 00:03:21;;;;;;;;;;;;;;;;;;349992;28;960;-64
2022/10/28 00:03:31;;;;;;;;;;;;;;;;;;349891;28;765;-65
2022/10/28 00:03:43;;;;;;;;;;;;;;;;;;349956;28;991;-65
2022/10/28 00:03:55;;;;;;;;;;;;;;;;;;349512;28;2208;-65
2022/10/28 00:04:05;;;;;;;;;;;;;;;;;;349983;28;861;-65
2022/10/28 00:04:15;;;;;;;;;;;;;;;;;;349966;28;965;-64
2022/10/28 00:04:25;;;;;;;;;;;;;;;;;;349988;28;854;-65
2022/10/28 00:04:36;;;;;;;;;;;;;;;;;;349912;28;1004;-65
2022/10/28 00:04:46;;;;;;;;;;;;;;;;;;349906;28;1011;-65
2022/10/28 00:04:56;;;;;;;;;;;;;;;;;;349990;28;857;-64
2022/10/28 00:05:06;;;;;;;;;;;;;;;;;;349936;28;999;-65
2022/10/28 00:05:16;;;;;;;;;;;;;;;;;;349993;28;971;-65
2022/10/28 00:05:27;;;;;;;;;;;;;;;;;;349948;28;1214;-65
2022/10/28 00:05:37;;;;;;;;;;;;;;;;;;349918;28;932;-65
2022/10/28 00:05:48;;;;;;;;;;;;;;;;;;349537;28;2069;-64
2022/10/28 00:06:02;;;;;;;;;;;;;;;;;;349911;28;1036;-65
2022/10/28 00:06:14;;;;;;;;;;;;;;;;;;349941;28;853;-64
2022/10/28 00:06:26;;;;;;;;;;;;;;;;;;349986;28;991;-65
2022/10/28 00:06:36;;;;;;;;;;;;;;;;;;349992;28;869;-65
2022/10/28 00:06:46;;;;;;;;;;;;;;;;;;349891;28;992;-65
2022/10/28 00:06:56;;;;;;;;;;;;;;;;;;349968;28;857;-64
2022/10/28 00:07:07;;;;;;;;;;;;;;;;;;349888;28;917;-64
2022/10/28 00:07:17;;;;;;;;;;;;;;;;;;349962;28;995;-65
2022/10/28 00:07:28;;;;;;;;;;;;;;;;;;349987;28;941;-65
2022/10/28 00:07:38;;;;;;;;;;;;;;;;;;349962;28;952;-65
2022/10/28 00:07:48;;;;;;;;;;;;;;;;;;349665;28;2180;-64
2022/10/28 00:07:58;;;;;;;;;;;;;;;;;;350154;28;1762;-65
2022/10/28 00:08:09;;;;;;;;;;;;;;;;;;350942;28;949;-65
2022/10/28 00:08:19;;;;;;;;;;;;;;;;;;349962;28;936;-65
2022/10/28 00:08:29;;;;;;;;;;;;;;;;;;349996;28;1023;-65
2022/10/28 00:08:39;;;;;;;;;;;;;;;;;;349962;28;987;-65
2022/10/28 00:08:50;;;;;;;;;;;;;;;;;;349893;28;929;-65
2022/10/28 00:09:00;;;;;;;;;;;;;;;;;;349860;28;944;-65
2022/10/28 00:09:11;;;;;;;;;;;;;;;;;;350006;28;933;-65
2022/10/28 00:09:21;;;;;;;;;;;;;;;;;;349718;28;1816;-65
2022/10/28 00:09:31;;;;;;;;;;;;;;;;;;349604;28;1662;-65
2022/10/28 00:09:41;;;;;;;;;;;;;;;;;;350079;28;1900;-65
2022/10/28 00:09:51;;;;;;;;;;;;;;;;;;351368;28;810;-65
2022/10/28 00:10:02;;;;;;;;;;;;;;;;;;351031;28;924;-64
2022/10/28 00:10:12;;;;;;;;;;;;;;;;;;349937;28;957;-64
2022/10/28 00:10:22;;;;;;;;;;;;;;;;;;349983;28;972;-64
2022/10/28 00:10:32;;;;;;;;;;;;;;;;;;349866;28;1918;-65
2022/10/28 00:10:43;;;;;;;;;;;;;;;;;;349967;28;999;-65
2022/10/28 00:11:00;;;;;;;;;;;;;;;;;;349994;28;901;-65
2022/10/28 00:11:11;;;;;;;;;;;;;;;;;;349927;28;909;-64
2022/10/28 00:11:26;;;;;;;;;;;;;;;;;;349931;28;1063;-65
2022/10/28 00:11:36;;;;;;;;;;;;;;;;;;349943;28;980;-64
2022/10/28 00:11:46;;;;;;;;;;;;;;;;;;349953;28;905;-65
2022/10/28 00:11:56;;;;;;;;;;;;;;;;;;349668;28;2296;-64
2022/10/28 00:12:07;;;;;;;;;;;;;;;;;;349886;28;932;-65
2022/10/28 00:12:17;;;;;;;;;;;;;;;;;;349971;28;865;-65
2022/10/28 00:12:27;;;;;;;;;;;;;;;;;;349960;28;873;-65
2022/10/28 00:12:37;;;;;;;;;;;;;;;;;;349981;28;980;-65
2022/10/28 00:12:47;;;;;;;;;;;;;;;;;;349931;28;913;-65
2022/10/28 00:12:58;;;;;;;;;;;;;;;;;;349973;28;822;-65
2022/10/28 00:13:08;;;;;;;;;;;;;;;;;;349859;28;865;-65
2022/10/28 00:13:18;;;;;;;;;;;;;;;;;;349936;28;936;-65
2022/10/28 00:13:28;;;;;;;;;;;;;;;;;;349882;28;992;-65
2022/10/28 00:13:39;;;;;;;;;;;;;;;;;;350015;28;850;-65
2022/10/28 00:13:52;;;;;;;;;;;;;;;;;;349914;28;909;-64
2022/10/28 00:14:03;;;;;;;;;;;;;;;;;;349964;28;1112;-64
2022/10/28 00:14:13;;;;;;;;;;;;;;;;;;349705;28;920;-65
2022/10/28 00:14:24;;;;;;;;;;;;;;;;;;349828;28;912;-65
2022/10/28 00:14:34;;;;;;;;;;;;;;;;;;349956;28;854;-64
2022/10/28 00:14:44;;;;;;;;;;;;;;;;;;349979;28;921;-65
2022/10/28 00:14:54;;;;;;;;;;;;;;;;;;349921;28;921;-65
2022/10/28 00:15:05;;;;;;;;;;;;;;;;;;349982;28;774;-65
2022/10/28 00:15:15;;;;;;;;;;;;;;;;;;349887;28;913;-64
2022/10/28 00:15:25;;;;;;;;;;;;;;;;;;349900;28;1056;-64
2022/10/28 00:15:35;;;;;;;;;;;;;;;;;;349916;28;837;-65
2022/10/28 00:15:45;;;;;;;;;;;;;;;;;;349567;28;2121;-65
2022/10/28 00:16:02;;;;;;;;;;;;;;;;;;350873;28;1865;-65
2022/10/28 00:16:13;;;;;;;;;;;;;;;;;;351360;28;909;-65
2022/10/28 00:16:25;;;;;;;;;;;;;;;;;;351323;28;761;-65
2022/10/28 00:16:36;;;;;;;;;;;;;;;;;;351382;28;1035;-65
2022/10/28 00:16:46;;;;;;;;;;;;;;;;;;351343;28;944;-65
2022/10/28 00:16:56;;;;;;;;;;;;;;;;;;351356;28;853;-65
2022/10/28 00:17:07;;;;;;;;;;;;;;;;;;351315;28;975;-65
2022/10/28 00:17:17;;;;;;;;;;;;;;;;;;351244;28;955;-64
2022/10/28 00:17:27;;;;;;;;;;;;;;;;;;351343;28;975;-65
2022/10/28 00:17:37;;;;;;;;;;;;;;;;;;351390;28;995;-65
2022/10/28 00:17:47;;;;;;;;;;;;;;;;;;350325;28;2168;-64
2022/10/28 00:17:58;;;;;;;;;;;;;;;;;;349940;28;854;-65
2022/10/28 00:18:08;;;;;;;;;;;;;;;;;;349810;28;1837;-65
2022/10/28 00:18:18;;;;;;;;;;;;;;;;;;349849;28;1015;-65
2022/10/28 00:18:28;;;;;;;;;;;;;;;;;;350080;28;1822;-65
2022/10/28 00:18:39;;;;;;;;;;;;;;;;;;351400;28;904;-65
2022/10/28 00:18:51;;;;;;;;;;;;;;;;;;351316;28;979;-65
2022/10/28 00:19:02;;;;;;;;;;;;;;;;;;351384;28;928;-65
2022/10/28 00:19:12;;;;;;;;;;;;;;;;;;351296;28;983;-65
2022/10/28 00:19:22;;;;;;;;;;;;;;;;;;351291;28;920;-64
2022/10/28 00:19:33;;;;;;;;;;;;;;;;;;351861;28;1386;-64
2022/10/28 00:19:43;;;;;;;;;;;;;;;;;;352738;28;909;-65
2022/10/28 00:19:53;;;;;;;;;;;;;;;;;;352760;28;976;-65
2022/10/28 00:20:03;;;;;;;;;;;;;;;;;;352704;28;998;-65
2022/10/28 00:20:14;;;;;;;;;;;;;;;;;;352657;28;952;-65
2022/10/28 00:20:24;;;;;;;;;;;;;;;;;;350762;28;2171;-65
2022/10/28 00:20:35;;;;;;;;;;;;;;;;;;349734;28;1997;-65
2022/10/28 00:20:45;;;;;;;;;;;;;;;;;;349931;28;983;-65
2022/10/28 00:21:03;;;;;;;;;;;;;;;;;;349918;28;1033;-65
2022/10/28 00:21:14;;;;;;;;;;;;;;;;;;349993;28;921;-64
2022/10/28 00:21:28;;;;;;;;;;;;;;;;;;349889;28;944;-65
2022/10/28 00:21:39;;;;;;;;;;;;;;;;;;349506;28;2223;-65
2022/10/28 00:21:49;;;;;;;;;;;;;;;;;;349927;28;988;-65
2022/10/28 00:22:00;;;;;;;;;;;;;;;;;;349934;28;1012;-65
2022/10/28 00:22:10;;;;;;;;;;;;;;;;;;349985;28;790;-65
2022/10/28 00:22:20;;;;;;;;;;;;;;;;;;349895;28;979;-65
2022/10/28 00:22:30;;;;;;;;;;;;;;;;;;349940;28;996;-65
2022/10/28 00:22:41;;;;;;;;;;;;;;;;;;349961;28;905;-64
2022/10/28 00:22:51;;;;;;;;;;;;;;;;;;349974;28;882;-65
2022/10/28 00:23:01;;;;;;;;;;;;;;;;;;349971;28;916;-65
2022/10/28 00:23:11;;;;;;;;;;;;;;;;;;349979;28;1034;-65
2022/10/28 00:23:22;;;;;;;;;;;;;;;;;;349869;28;876;-65
2022/10/28 00:23:32;;;;;;;;;;;;;;;;;;349948;28;897;-65
2022/10/28 00:23:43;;;;;;;;;;;;;;;;;;349643;28;2216;-65
2022/10/28 00:23:53;;;;;;;;;;;;;;;;;;349921;28;936;-64
2022/10/28 00:24:04;;;;;;;;;;;;;;;;;;349936;28;944;-65
2022/10/28 00:24:14;;;;;;;;;;;;;;;;;;349909;28;1015;-65
2022/10/28 00:24:24;;;;;;;;;;;;;;;;;;349867;28;952;-64
2022/10/28 00:24:34;;;;;;;;;;;;;;;;;;349936;28;1012;-64
2022/10/28 00:24:44;;;;;;;;;;;;;;;;;;349957;28;909;-65
2022/10/28 00:24:54;;;;;;;;;;;;;;;;;;349906;28;992;-65
2022/10/28 00:25:05;;;;;;;;;;;;;;;;;;349960;28;988;-65
2022/10/28 00:25:15;;;;;;;;;;;;;;;;;;349943;28;845;-65
2022/10/28 00:25:25;;;;;;;;;;;;;;;;;;349899;28;972;-65
2022/10/28 00:25:36;;;;;;;;;;;;;;;;;;349882;28;1003;-65
2022/10/28 00:25:46;;;;;;;;;;;;;;;;;;349947;28;1012;-65
2022/10/28 00:26:02;;;;;;;;;;;;;;;;;;349902;28;882;-65
2022/10/28 00:26:17;;;;;;;;;;;;;;;;;;349941;28;972;-64
2022/10/28 00:26:28;;;;;;;;;;;;;;;;;;349794;28;1238;-65
2022/10/28 00:26:41;;;;;;;;;;;;;;;;;;349946;28;1035;-65
2022/10/28 00:26:51;;;;;;;;;;;;;;;;;;349943;28;900;-65
2022/10/28 00:27:01;;;;;;;;;;;;;;;;;;349900;28;972;-64
2022/10/28 00:27:11;;;;;;;;;;;;;;;;;;349748;28;2142;-65
2022/10/28 00:27:21;;;;;;;;;;;;;;;;;;350639;28;1905;-65
2022/10/28 00:27:32;;;;;;;;;;;;;;;;;;350245;28;983;-65
2022/10/28 00:27:42;;;;;;;;;;;;;;;;;;349826;28;961;-65
2022/10/28 00:27:53;;;;;;;;;;;;;;;;;;349976;28;913;-65
2022/10/28 00:28:03;;;;;;;;;;;;;;;;;;349941;28;904;-65
2022/10/28 00:28:13;;;;;;;;;;;;;;;;;;349947;28;924;-65
2022/10/28 00:28:23;;;;;;;;;;;;;;;;;;349900;28;1062;-65
2022/10/28 00:28:34;;;;;;;;;;;;;;;;;;349941;28;874;-65
2022/10/28 00:28:45;;;;;;;;;;;;;;;;;;349929;28;1009;-65
2022/10/28 00:28:57;;;;;;;;;;;;;;;;;;351213;28;1276;-65
2022/10/28 00:29:17;;;;;;;;;;;;;;;;;;351275;28;857;-65
2022/10/28 00:29:27;;;;;;;;;;;;;;;;;;351184;28;1017;-65
2022/10/28 00:29:37;;;;;;;;;;;;;;;;;;351207;28;852;-65
2022/10/28 00:29:47;;;;;;;;;;;;;;;;;;351198;28;920;-64
2022/10/28 00:29:58;;;;;;;;;;;;;;;;;;351291;28;1027;-65
2022/10/28 00:30:08;;;;;;;;;;;;;;;;;;351245;28;924;-65
2022/10/28 00:30:18;;;;;;;;;;;;;;;;;;351152;28;1205;-65
2022/10/28 00:30:28;;;;;;;;;;;;;;;;;;351170;28;1898;-64
2022/10/28 00:30:39;;;;;;;;;;;;;;;;;;351231;28;763;-65
2022/10/28 00:30:49;;;;;;;;;;;;;;;;;;350924;28;956;-65
2022/10/28 00:31:04;;;;;;;;;;;;;;;;;;349722;28;2121;-65
2022/10/28 00:31:15;;;;;;;;;;;;;;;;;;349954;28;810;-65
2022/10/28 00:31:26;;;;;;;;;;;;;;;;;;350024;28;818;-65
2022/10/28 00:31:37;;;;;;;;;;;;;;;;;;350001;28;795;-64
2022/10/28 00:31:47;;;;;;;;;;;;;;;;;;349966;28;818;-65
2022/10/28 00:31:57;;;;;;;;;;;;;;;;;;349929;28;806;-65
2022/10/28 00:32:08;;;;;;;;;;;;;;;;;;349570;28;2157;-65
2022/10/28 00:32:18;;;;;;;;;;;;;;;;;;350004;28;841;-64
2022/10/28 00:32:28;;;;;;;;;;;;;;;;;;349455;28;1675;-65
2022/10/28 00:32:38;;;;;;;;;;;;;;;;;;349875;28;1563;-64
2022/10/28 00:32:48;;;;;;;;;;;;;;;;;;349961;28;992;-65
2022/10/28 00:32:59;;;;;;;;;;;;;;;;;;349929;28;778;-65
2022/10/28 00:33:09;;;;;;;;;;;;;;;;;;349959;28;921;-65
2022/10/28 00:33:19;;;;;;;;;;;;;;;;;;349763;28;1218;-65
2022/10/28 00:33:29;;;;;;;;;;;;;;;;;;349929;28;992;-64
2022/10/28 00:33:40;;;;;;;;;;;;;;;;;;349943;28;1047;-65
2022/10/28 00:33:50;;;;;;;;;;;;;;;;;;349947;28;932;-65
2022/10/28 00:34:02;;;;;;;;;;;;;;;;;;349536;28;2144;-64
2022/10/28 00:34:14;;;;;;;;;;;;;;;;;;349974;28;857;-64
2022/10/28 00:34:24;;;;;;;;;;;;;;;;;;349953;28;924;-64
2022/10/28 00:34:34;;;;;;;;;;;;;;;;;;349957;28;956;-65
2022/10/28 00:34:44;;;;;;;;;;;;;;;;;;349925;28;699;-65
2022/10/28 00:34:54;;;;;;;;;;;;;;;;;;349942;28;873;-65
2022/10/28 00:35:05;;;;;;;;;;;;;;;;;;349564;28;2195;-65
2022/10/28 00:35:15;;;;;;;;;;;;;;;;;;349883;28;1062;-65
2022/10/28 00:35:25;;;;;;;;;;;;;;;;;;349919;28;920;-65
2022/10/28 00:35:36;;;;;;;;;;;;;;;;;;349935;28;908;-65
2022/10/28 00:35:46;;;;;;;;;;;;;;;;;;349950;28;921;-64
2022/10/28 00:35:56;;;;;;;;;;;;;;;;;;349928;28;917;-65
2022/10/28 00:36:35;;;;;;;;;;;;;;;;;;349863;28;841;-65
2022/10/28 00:36:46;;;;;;;;;;;;;;;;;;346982;28;980;-65
2022/10/28 00:36:56;;;;;;;;;;;;;;;;;;346928;28;1218;-66
2022/10/28 00:37:06;;;;;;;;;;;;;;;;;;346804;28;2885;-65
2022/10/28 00:37:17;;;;;;;;;;;;;;;;;;350780;28;1743;-65
2022/10/28 00:37:27;;;;;;;;;;;;;;;;;;349880;28;949;-65
2022/10/28 00:37:37;;;;;;;;;;;;;;;;;;349936;28;821;-65
2022/10/28 00:37:51;;;;;;;;;;;;;;;;;;350637;28;1868;-65
2022/10/28 00:38:01;;;;;;;;;;;;;;;;;;351316;28;936;-65
2022/10/28 00:38:11;;;;;;;;;;;;;;;;;;350054;28;913;-65
2022/10/28 00:38:21;;;;;;;;;;;;;;;;;;350008;28;976;-64
2022/10/28 00:38:32;;;;;;;;;;;;;;;;;;349925;28;999;-65
2022/10/28 00:38:43;;;;;;;;;;;;;;;;;;349900;28;968;-65
2022/10/28 00:38:54;;;;;;;;;;;;;;;;;;349887;28;847;-65
2022/10/28 00:39:09;;;;;;;;;;;;;;;;;;349966;28;960;-64
2022/10/28 00:39:20;;;;;;;;;;;;;;;;;;349916;28;1003;-64
2022/10/28 00:39:30;;;;;;;;;;;;;;;;;;349890;28;850;-65
2022/10/28 00:39:41;;;;;;;;;;;;;;;;;;349930;28;921;-65
2022/10/28 00:39:51;;;;;;;;;;;;;;;;;;349884;28;1077;-65
2022/10/28 00:40:01;;;;;;;;;;;;;;;;;;349781;28;1083;-65
2022/10/28 00:40:11;;;;;;;;;;;;;;;;;;350260;28;2160;-65
2022/10/28 00:40:21;;;;;;;;;;;;;;;;;;351325;28;1051;-65
2022/10/28 00:40:35;;;;;;;;;;;;;;;;;;351316;28;1007;-64
2022/10/28 00:40:45;;;;;;;;;;;;;;;;;;351273;28;1074;-65
2022/10/28 00:40:55;;;;;;;;;;;;;;;;;;351322;28;845;-65
2022/10/28 00:41:06;;;;;;;;;;;;;;;;;;351323;28;928;-65
2022/10/28 00:41:36;;;;;;;;;;;;;;;;;;351315;28;868;-65
2022/10/28 00:41:48;;;;;;;;;;;;;;;;;;350689;28;1146;-65
2022/10/28 00:42:02;;;;;;;;;;;;;;;;;;351290;28;941;-65
2022/10/28 00:42:14;;;;;;;;;;;;;;;;;;349856;28;2196;-64
2022/10/28 00:42:25;;;;;;;;;;;;;;;;;;350088;28;1931;-65
2022/10/28 00:42:35;;;;;;;;;;;;;;;;;;349944;28;837;-65
2022/10/28 00:42:45;;;;;;;;;;;;;;;;;;349872;28;992;-65
2022/10/28 00:42:55;;;;;;;;;;;;;;;;;;349886;28;845;-65
2022/10/28 00:43:08;;;;;;;;;;;;;;;;;;349939;28;972;-65
2022/10/28 00:43:31;;;;;;;;;;;;;;;;;;349580;28;2237;-65
2022/10/28 00:43:46;;;;;;;;;;;;;;;;;;349912;28;1024;-65
2022/10/28 00:43:58;;;;;;;;;;;;;;;;;;349963;28;900;-65
2022/10/28 00:44:27;;;;;;;;;;;;;;;;;;349853;28;1215;-65
2022/10/28 00:44:52;;;;;;;;;;;;;;;;;;349832;28;1217;-65
2022/10/28 00:45:02;;;;;;;;;;;;;;;;;;349970;28;877;-65
2022/10/28 00:45:13;;;;;;;;;;;;;;;;;;349906;28;1023;-65
2022/10/28 00:45:23;;;;;;;;;;;;;;;;;;349918;28;933;-64
2022/10/28 00:45:33;;;;;;;;;;;;;;;;;;349934;28;881;-65
2022/10/28 00:45:43;;;;;;;;;;;;;;;;;;349888;28;921;-65
2022/10/28 00:45:53;;;;;;;;;;;;;;;;;;349909;28;952;-65
2022/10/28 00:46:06;;;;;;;;;;;;;;;;;;349926;28;945;-65
2022/10/28 00:46:35;;;;;;;;;;;;;;;;;;349882;28;1058;-64
2022/10/28 00:46:48;;;;;;;;;;;;;;;;;;349906;28;956;-65
2022/10/28 00:46:58;;;;;;;;;;;;;;;;;;349927;28;999;-65
2022/10/28 00:47:23;;;;;;;;;;;;;;;;;;349554;28;2160;-65
2022/10/28 00:47:40;;;;;;;;;;;;;;;;;;349915;28;972;-65
2022/10/28 00:47:59;;;;;;;;;;;;;;;;;;349930;28;981;-64
2022/10/28 00:48:09;;;;;;;;;;;;;;;;;;349852;28;1016;-65
2022/10/28 00:48:19;;;;;;;;;;;;;;;;;;349926;28;1103;-65
2022/10/28 00:48:29;;;;;;;;;;;;;;;;;;349899;28;988;-65
2022/10/28 00:48:42;;;;;;;;;;;;;;;;;;349845;28;921;-65
2022/10/28 00:48:54;;;;;;;;;;;;;;;;;;349907;28;921;-65
2022/10/28 00:49:11;;;;;;;;;;;;;;;;;;349923;28;995;-65
2022/10/28 00:49:25;;;;;;;;;;;;;;;;;;349936;28;865;-65
2022/10/28 00:49:35;;;;;;;;;;;;;;;;;;349905;28;1095;-65
2022/10/28 00:49:47;;;;;;;;;;;;;;;;;;349895;28;941;-65
2022/10/28 00:50:13;;;;;;;;;;;;;;;;;;349867;28;924;-65
2022/10/28 00:50:42;;;;;;;;;;;;;;;;;;349963;28;961;-65
2022/10/28 00:50:53;;;;;;;;;;;;;;;;;;349845;28;983;-64
2022/10/28 00:51:04;;;;;;;;;;;;;;;;;;349918;28;949;-65
2022/10/28 00:51:16;;;;;;;;;;;;;;;;;;349936;28;984;-65
2022/10/28 00:51:28;;;;;;;;;;;;;;;;;;349905;28;941;-65
2022/10/28 00:51:38;;;;;;;;;;;;;;;;;;348215;28;2172;-65
2022/10/28 00:51:51;;;;;;;;;;;;;;;;;;349574;28;1928;-65
2022/10/28 00:52:07;;;;;;;;;;;;;;;;;;349515;28;837;-64
2022/10/28 00:52:20;;;;;;;;;;;;;;;;;;348359;28;1690;-65
2022/10/28 00:52:31;;;;;;;;;;;;;;;;;;349135;28;1781;-65
2022/10/28 00:52:43;;;;;;;;;;;;;;;;;;348341;28;1107;-64
2022/10/28 00:52:57;;;;;;;;;;;;;;;;;;348471;28;870;-65
2022/10/28 00:53:09;;;;;;;;;;;;;;;;;;348456;28;953;-65
2022/10/28 00:53:24;;;;;;;;;;;;;;;;;;348439;28;929;-65
2022/10/28 00:53:34;;;;;;;;;;;;;;;;;;349198;28;869;-65
2022/10/28 00:53:47;;;;;;;;;;;;;;;;;;349712;28;1485;-65
2022/10/28 00:53:57;;;;;;;;;;;;;;;;;;349880;28;976;-65
2022/10/28 00:54:07;;;;;;;;;;;;;;;;;;349952;28;924;-65
2022/10/28 00:54:18;;;;;;;;;;;;;;;;;;349877;28;944;-65
2022/10/28 00:54:29;;;;;;;;;;;;;;;;;;349935;28;1075;-65
2022/10/28 00:54:41;;;;;;;;;;;;;;;;;;349942;28;941;-65
2022/10/28 00:54:51;;;;;;;;;;;;;;;;;;349843;28;945;-65
2022/10/28 00:55:02;;;;;;;;;;;;;;;;;;349936;28;771;-64
2022/10/28 00:55:15;;;;;;;;;;;;;;;;;;349914;28;996;-65
2022/10/28 00:55:25;;;;;;;;;;;;;;;;;;349937;28;1031;-65
2022/10/28 00:55:35;;;;;;;;;;;;;;;;;;349632;28;2106;-65
2022/10/28 00:55:47;;;;;;;;;;;;;;;;;;350071;28;1623;-65
2022/10/28 00:55:59;;;;;;;;;;;;;;;;;;349879;28;988;-65
2022/10/28 00:56:10;;;;;;;;;;;;;;;;;;349875;28;909;-65
2022/10/28 00:56:21;;;;;;;;;;;;;;;;;;349902;28;987;-65
2022/10/28 00:56:35;;;;;;;;;;;;;;;;;;349902;28;937;-64
2022/10/28 00:56:47;;;;;;;;;;;;;;;;;;349980;28;988;-65
2022/10/28 00:56:59;;;;;;;;;;;;;;;;;;349924;28;895;-65
2022/10/28 00:57:11;;;;;;;;;;;;;;;;;;349958;28;968;-65
2022/10/28 00:57:24;;;;;;;;;;;;;;;;;;349842;28;1008;-65
2022/10/28 00:57:36;;;;;;;;;;;;;;;;;;349753;28;2180;-65
2022/10/28 00:57:46;;;;;;;;;;;;;;;;;;350400;28;853;-65
2022/10/28 00:57:58;;;;;;;;;;;;;;;;;;349908;28;1001;-65
2022/10/28 00:58:09;;;;;;;;;;;;;;;;;;349927;28;925;-64
2022/10/28 00:58:20;;;;;;;;;;;;;;;;;;349984;28;857;-65
2022/10/28 00:58:31;;;;;;;;;;;;;;;;;;349872;28;992;-65
2022/10/28 00:58:41;;;;;;;;;;;;;;;;;;349943;28;861;-65
2022/10/28 00:58:55;;;;;;;;;;;;;;;;;;349909;28;940;-65
2022/10/28 00:59:07;;;;;;;;;;;;;;;;;;349871;28;932;-65
2022/10/28 00:59:20;;;;;;;;;;;;;;;;;;349943;28;861;-65
2022/10/28 00:59:32;;;;;;;;;;;;;;;;;;349857;28;1015;-65
2022/10/28 00:59:44;;;;;;;;;;;;;;;;;;349563;28;2195;-65
2022/10/28 00:59:55;;;;;;;;;;;;;;;;;;351300;28;969;-65
2022/10/28 01:00:06;;;;;;;;;;;;;;;;;;351252;28;940;-65
2022/10/28 01:00:16;;;;;;;;;;;;;;;;;;351341;28;774;-65
2022/10/28 01:00:26;;;;;;;;;;;;;;;;;;351304;28;924;-65
2022/10/28 01:00:37;;;;;;;;;;;;;;;;;;351297;28;1038;-65
2022/10/28 01:00:47;;;;;;;;;;;;;;;;;;350261;28;2179;-65
2022/10/28 01:00:57;;;;;;;;;;;;;;;;;;350054;28;1860;-65
2022/10/28 01:01:07;;;;;;;;;;;;;;;;;;349835;28;928;-64
2022/10/28 01:01:17;;;;;;;;;;;;;;;;;;349931;28;905;-65
2022/10/28 01:01:28;;;;;;;;;;;;;;;;;;349951;28;984;-65
2022/10/28 01:01:38;;;;;;;;;;;;;;;;;;349913;28;1008;-65
2022/10/28 01:01:48;;;;;;;;;;;;;;;;;;349920;28;992;-65
2022/10/28 01:01:59;;;;;;;;;;;;;;;;;;349711;28;2165;-65
2022/10/28 01:02:09;;;;;;;;;;;;;;;;;;350344;28;1484;-65
2022/10/28 01:02:19;;;;;;;;;;;;;;;;;;351370;28;924;-65
2022/10/28 01:02:33;;;;;;;;;;;;;;;;;;351314;28;781;-65
2022/10/28 01:02:47;;;;;;;;;;;;;;;;;;351308;28;1012;-65
2022/10/28 01:02:57;;;;;;;;;;;;;;;;;;351330;28;971;-65
2022/10/28 01:03:08;;;;;;;;;;;;;;;;;;349897;28;2088;-65
2022/10/28 01:03:19;;;;;;;;;;;;;;;;;;349852;28;1015;-65
2022/10/28 01:03:29;;;;;;;;;;;;;;;;;;349943;28;980;-64
2022/10/28 01:03:39;;;;;;;;;;;;;;;;;;349933;28;925;-65
2022/10/28 01:03:50;;;;;;;;;;;;;;;;;;349938;28;979;-65
2022/10/28 01:04:00;;;;;;;;;;;;;;;;;;349895;28;790;-65
2022/10/28 01:04:10;;;;;;;;;;;;;;;;;;349907;28;849;-65
2022/10/28 01:04:21;;;;;;;;;;;;;;;;;;349933;28;965;-65
2022/10/28 01:04:31;;;;;;;;;;;;;;;;;;349933;28;873;-65
2022/10/28 01:04:42;;;;;;;;;;;;;;;;;;349858;28;925;-65
2022/10/28 01:04:53;;;;;;;;;;;;;;;;;;349637;28;1580;-65
2022/10/28 01:05:03;;;;;;;;;;;;;;;;;;349909;28;917;-65
2022/10/28 01:05:16;;;;;;;;;;;;;;;;;;349817;28;999;-65
2022/10/28 01:05:28;;;;;;;;;;;;;;;;;;349825;28;936;-65
2022/10/28 01:05:40;;;;;;;;;;;;;;;;;;349934;28;1020;-64
2022/10/28 01:05:51;;;;;;;;;;;;;;;;;;349919;28;1023;-65
2022/10/28 01:06:02;;;;;;;;;;;;;;;;;;349930;28;747;-65
2022/10/28 01:06:12;;;;;;;;;;;;;;;;;;349873;28;932;-64
2022/10/28 01:06:24;;;;;;;;;;;;;;;;;;349954;28;980;-65
2022/10/28 01:06:35;;;;;;;;;;;;;;;;;;349906;28;952;-65
2022/10/28 01:06:46;;;;;;;;;;;;;;;;;;349495;28;2177;-65
2022/10/28 01:06:57;;;;;;;;;;;;;;;;;;350482;28;1840;-65
2022/10/28 01:07:09;;;;;;;;;;;;;;;;;;351317;28;881;-65
2022/10/28 01:07:19;;;;;;;;;;;;;;;;;;351183;28;1047;-65
2022/10/28 01:07:29;;;;;;;;;;;;;;;;;;350161;28;1832;-65
2022/10/28 01:07:39;;;;;;;;;;;;;;;;;;350432;28;1740;-65
2022/10/28 01:07:52;;;;;;;;;;;;;;;;;;349017;28;1924;-65
2022/10/28 01:08:03;;;;;;;;;;;;;;;;;;351363;28;813;-64
2022/10/28 01:08:14;;;;;;;;;;;;;;;;;;351243;28;960;-65
2022/10/28 01:08:24;;;;;;;;;;;;;;;;;;351260;28;936;-65
2022/10/28 01:08:34;;;;;;;;;;;;;;;;;;351304;28;912;-64
2022/10/28 01:08:45;;;;;;;;;;;;;;;;;;350305;28;2203;-65
2022/10/28 01:08:55;;;;;;;;;;;;;;;;;;349893;28;992;-65
2022/10/28 01:09:05;;;;;;;;;;;;;;;;;;349937;28;929;-65
2022/10/28 01:09:15;;;;;;;;;;;;;;;;;;349823;28;862;-65
2022/10/28 01:09:25;;;;;;;;;;;;;;;;;;349788;28;980;-65
2022/10/28 01:09:36;;;;;;;;;;;;;;;;;;349911;28;1067;-64
2022/10/28 01:09:47;;;;;;;;;;;;;;;;;;349935;28;945;-65
2022/10/28 01:09:57;;;;;;;;;;;;;;;;;;349886;28;1102;-65
2022/10/28 01:10:08;;;;;;;;;;;;;;;;;;349909;28;980;-65
2022/10/28 01:10:21;;;;;;;;;;;;;;;;;;349893;28;983;-65
2022/10/28 01:10:37;;;;;;;;;;;;;;;;;;349815;28;1963;-65
2022/10/28 01:10:47;;;;;;;;;;;;;;;;;;351207;28;1044;-65
2022/10/28 01:11:09;;;;;;;;;;;;;;;;;;351275;28;801;-65
2022/10/28 01:11:22;;;;;;;;;;;;;;;;;;351327;28;995;-65
2022/10/28 01:11:45;;;;;;;;;;;;;;;;;;351305;28;877;-64
2022/10/28 01:12:13;;;;;;;;;;;;;;;;;;351263;28;940;-65
2022/10/28 01:12:33;;;;;;;;;;;;;;;;;;349697;28;2196;-65
2022/10/28 01:12:56;;;;;;;;;;;;;;;;;;349779;28;1011;-65
2022/10/28 01:13:12;;;;;;;;;;;;;;;;;;349924;28;804;-65
2022/10/28 01:13:29;;;;;;;;;;;;;;;;;;349804;28;1015;-65
2022/10/28 01:13:46;;;;;;;;;;;;;;;;;;349928;28;798;-65
2022/10/28 01:13:59;;;;;;;;;;;;;;;;;;349948;28;821;-65
2022/10/28 01:14:19;;;;;;;;;;;;;;;;;;349872;28;936;-65
2022/10/28 01:14:48;;;;;;;;;;;;;;;;;;349913;28;867;-65
2022/10/28 01:15:01;;;;;;;;;;;;;;;;;;349862;28;936;-65
2022/10/28 01:15:18;;;;;;;;;;;;;;;;;;349925;28;798;-65
2022/10/28 01:15:28;;;;;;;;;;;;;;;;;;349948;28;1039;-65
2022/10/28 01:15:57;;;;;;;;;;;;;;;;;;349725;28;1765;-64
2022/10/28 01:16:23;;;;;;;;;;;;;;;;;;351286;28;892;-65
2022/10/28 01:16:57;;;;;;;;;;;;;;;;;;351305;28;924;-65
2022/10/28 01:17:22;;;;;;;;;;;;;;;;;;350826;28;1626;-65
2022/10/28 01:17:43;;;;;;;;;;;;;;;;;;349820;28;1845;-64
2022/10/28 01:17:53;;;;;;;;;;;;;;;;;;349533;28;1976;-64
2022/10/28 01:18:03;;;;;;;;;;;;;;;;;;349858;28;897;-65
2022/10/28 01:18:26;;;;;;;;;;;;;;;;;;349929;28;860;-65
2022/10/28 01:18:53;;;;;;;;;;;;;;;;;;351067;28;996;-65
2022/10/28 01:19:17;;;;;;;;;;;;;;;;;;350262;28;1921;-65
2022/10/28 01:19:36;;;;;;;;;;;;;;;;;;350132;28;2052;-65
2022/10/28 01:20:07;;;;;;;;;;;;;;;;;;351233;28;825;-65
2022/10/28 01:20:23;;;;;;;;;;;;;;;;;;351296;28;790;-64
2022/10/28 01:20:52;;;;;;;;;;;;;;;;;;351236;28;1006;-65
2022/10/28 01:21:02;;;;;;;;;;;;;;;;;;351250;28;924;-65
2022/10/28 01:21:25;;;;;;;;;;;;;;;;;;351282;28;1083;-65
2022/10/28 01:21:54;;;;;;;;;;;;;;;;;;351267;28;916;-65
2022/10/28 01:22:24;;;;;;;;;;;;;;;;;;351244;28;937;-64
2022/10/28 01:22:48;;;;;;;;;;;;;;;;;;350438;28;1682;-64
2022/10/28 01:23:17;;;;;;;;;;;;;;;;;;349279;28;1790;-65
2022/10/28 01:23:34;;;;;;;;;;;;;;;;;;350828;28;953;-64
2022/10/28 01:23:56;;;;;;;;;;;;;;;;;;351035;28;979;-65
2022/10/28 01:24:09;;;;;;;;;;;;;;;;;;351295;28;957;-65
2022/10/28 01:24:45;;;;;;;;;;;;;;;;;;351272;28;976;-65
2022/10/28 01:24:55;;;;;;;;;;;;;;;;;;350003;28;1789;-64
2022/10/28 01:25:25;;;;;;;;;;;;;;;;;;349922;28;845;-65
2022/10/28 01:25:58;;;;;;;;;;;;;;;;;;350101;28;991;-65
2022/10/28 01:26:26;;;;;;;;;;;;;;;;;;350127;28;1028;-65
2022/10/28 01:26:55;;;;;;;;;;;;;;;;;;349990;28;1794;-65
2022/10/28 01:27:19;;;;;;;;;;;;;;;;;;351632;28;849;-65
2022/10/28 01:27:29;;;;;;;;;;;;;;;;;;351603;28;901;-64
2022/10/28 01:27:51;;;;;;;;;;;;;;;;;;351577;28;857;-64
2022/10/28 01:28:08;;;;;;;;;;;;;;;;;;351491;28;920;-65
2022/10/28 01:28:24;;;;;;;;;;;;;;;;;;351550;28;1000;-65
2022/10/28 01:28:43;;;;;;;;;;;;;;;;;;350186;28;1047;-64
2022/10/28 01:28:56;;;;;;;;;;;;;;;;;;350137;28;996;-65
2022/10/28 01:29:24;;;;;;;;;;;;;;;;;;350193;28;940;-65
2022/10/28 01:29:34;;;;;;;;;;;;;;;;;;350083;28;1007;-65
2022/10/28 01:30:02;;;;;;;;;;;;;;;;;;350194;28;987;-64
2022/10/28 01:30:17;;;;;;;;;;;;;;;;;;350071;28;759;-65
2022/10/28 01:30:30;;;;;;;;;;;;;;;;;;349942;28;1956;-65
2022/10/28 01:30:59;;;;;;;;;;;;;;;;;;350557;28;1888;-65